Time;durP1;ratioP1;P1;durP2;ratioP2;P2;SDS_P1;SDS_P2;PMS_P1;PMS_P2;Temp;Humidity;BMP_temperature;BMP_pressure;BME280_temperature;BME280_humidity;BME280_pressure;Samples;Min_cycle;Max_cycle;Signal;HPM_P1;HPM_P2
2021/06/04 00:01:32;;;;;;;22.10;10.50;;;;;;;11.72;47.90;99811.91;125501;1104;103078;-68
2021/06/04 00:04:01;;;;;;;25.55;12.58;;;;;;;11.69;47.85;99812.11;125527;1104;103056;-68
2021/06/04 00:06:30;;;;;;;25.13;11.93;;;;;;;11.66;47.98;99808.77;125449;1104;103005;-69
2021/06/04 00:08:59;;;;;;;24.23;11.83;;;;;;;11.68;48.31;99807.73;125504;1104;103428;-70
2021/06/04 00:11:32;;;;;;;22.50;11.23;;;;;;;11.70;48.25;99813.82;125486;1104;103022;-69
2021/06/04 00:14:27;;;;;;;23.00;11.27;;;;;;;11.69;48.32;99805.91;125503;1097;103059;-70
2021/06/04 00:17:05;;;;;;;23.13;11.13;;;;;;;11.57;48.39;99810.23;125470;1104;103016;-69
2021/06/04 00:19:35;;;;;;;25.23;11.73;;;;;;;11.47;48.46;99807.33;125522;1104;103121;-68
2021/06/04 00:22:17;;;;;;;23.80;11.53;;;;;;;11.47;48.69;99807.33;125544;1104;102968;-69
2021/06/04 00:24:49;;;;;;;22.27;10.57;;;;;;;11.30;48.44;99800.42;125464;1104;102984;-69
2021/06/04 00:27:20;;;;;;;21.70;9.90;;;;;;;11.11;48.41;99801.58;125508;1096;103109;-68
2021/06/04 00:29:49;;;;;;;25.37;11.43;;;;;;;10.91;48.23;99802.00;125543;1104;103059;-68
2021/06/04 00:32:19;;;;;;;25.83;12.70;;;;;;;10.70;48.34;99799.70;125514;1104;103115;-68
2021/06/04 00:34:48;;;;;;;23.80;10.83;;;;;;;10.57;48.60;99802.27;125472;1104;103005;-68
2021/06/04 00:37:18;;;;;;;25.50;12.27;;;;;;;10.57;49.32;99803.14;125503;1096;103158;-68
2021/06/04 00:39:47;;;;;;;23.67;12.00;;;;;;;10.64;49.36;99808.05;125497;1104;103078;-69
2021/06/04 00:42:22;;;;;;;23.40;12.33;;;;;;;10.71;49.56;99801.41;125577;1104;103136;-68
2021/06/04 00:44:55;;;;;;;21.57;11.50;;;;;;;10.76;49.65;99803.81;125535;1104;103108;-69
2021/06/04 00:47:24;;;;;;;24.20;11.63;;;;;;;10.74;49.47;99803.89;125603;1104;103025;-69
2021/06/04 00:49:53;;;;;;;24.03;11.67;;;;;;;10.71;49.63;99809.39;125620;1104;102984;-69
2021/06/04 00:52:27;;;;;;;23.00;12.10;;;;;;;10.52;49.14;99807.88;125638;1104;102990;-69
2021/06/04 00:54:59;;;;;;;22.47;11.60;;;;;;;10.31;49.42;99817.09;125629;1104;102985;-69
2021/06/04 00:57:29;;;;;;;23.30;11.43;;;;;;;10.21;49.48;99814.98;125546;1096;103118;-68
2021/06/04 01:00:04;;;;;;;22.37;12.37;;;;;;;10.20;49.98;99813.27;125512;1104;103042;-69
2021/06/04 01:02:33;;;;;;;24.53;11.40;;;;;;;10.15;49.89;99812.72;125502;1104;103020;-68
2021/06/04 01:05:06;;;;;;;25.13;12.83;;;;;;;10.16;50.17;99810.89;125500;1096;103106;-68
2021/06/04 01:08:00;;;;;;;22.80;12.20;;;;;;;10.19;50.45;99808.06;125516;1096;102977;-69
2021/06/04 01:10:47;;;;;;;24.17;11.87;;;;;;;10.25;50.73;99810.36;125510;1104;103527;-69
2021/06/04 01:13:57;;;;;;;26.30;12.40;;;;;;;10.32;50.67;99803.73;125529;1104;103112;-69
2021/06/04 01:16:46;;;;;;;21.50;10.83;;;;;;;10.39;50.95;99804.23;125327;1108;103071;-67
2021/06/04 01:19:38;;;;;;;23.30;11.07;;;;;;;10.43;50.94;99808.42;125510;1104;102984;-69
2021/06/04 01:22:28;;;;;;;21.30;10.40;;;;;;;10.39;51.01;99802.42;125520;1104;102987;-71
2021/06/04 01:25:35;;;;;;;21.93;10.43;;;;;;;10.42;51.05;99810.22;125514;1104;103075;-68
2021/06/04 01:28:12;;;;;;;20.73;9.73;;;;;;;10.46;51.37;99813.56;125289;1107;103464;-67
2021/06/04 01:30:48;;;;;;;26.23;11.10;;;;;;;10.50;51.33;99808.90;125465;1104;103067;-68
2021/06/04 01:33:22;;;;;;;20.87;9.97;;;;;;;10.52;51.15;99810.53;125491;1104;103067;-68
2021/06/04 01:36:00;;;;;;;21.90;10.97;;;;;;;10.54;51.53;99808.64;125534;1104;103056;-69
2021/06/04 01:38:39;;;;;;;22.63;10.10;;;;;;;10.56;51.36;99809.41;125554;1104;102998;-68
2021/06/04 01:41:13;;;;;;;22.80;9.63;;;;;;;10.57;51.53;99807.59;125502;1096;103475;-67
2021/06/04 01:43:56;;;;;;;19.88;9.10;;;;;;;10.57;51.56;99810.25;125526;1096;103200;-69
2021/06/04 01:46:35;;;;;;;20.60;8.93;;;;;;;10.55;51.50;99812.14;125535;1104;102992;-69
2021/06/04 01:49:20;;;;;;;21.40;8.85;;;;;;;10.50;51.57;99804.45;125529;1096;102981;-67
2021/06/04 01:52:07;;;;;;;19.57;8.33;;;;;;;10.44;51.65;99810.14;125531;1104;103108;-68
2021/06/04 01:54:41;;;;;;;18.30;8.37;;;;;;;10.38;51.73;99803.36;125508;1104;103108;-67
2021/06/04 01:57:18;;;;;;;18.00;8.20;;;;;;;10.38;51.92;99805.16;125502;1104;103108;-68
2021/06/04 01:59:51;;;;;;;16.90;7.73;;;;;;;10.42;52.10;99809.38;125580;1104;103000;-68
2021/06/04 02:02:23;;;;;;;18.23;8.83;;;;;;;10.45;52.02;99806.53;125561;1104;103014;-68
2021/06/04 02:04:54;;;;;;;21.00;8.77;;;;;;;10.46;52.07;99805.59;125582;1104;103125;-70
2021/06/04 02:07:30;;;;;;;17.07;7.47;;;;;;;10.43;51.95;99800.45;125553;1104;102989;-67
2021/06/04 02:10:01;;;;;;;18.30;7.83;;;;;;;10.42;52.08;99814.69;125544;1097;103132;-67
2021/06/04 02:12:30;;;;;;;19.10;7.97;;;;;;;10.41;52.09;99808.50;125504;1104;102994;-68
2021/06/04 02:15:11;;;;;;;17.20;7.77;;;;;;;10.41;52.33;99807.66;125529;1104;102985;-68
2021/06/04 02:17:56;;;;;;;18.07;7.50;;;;;;;10.39;52.37;99809.55;125539;1096;103121;-67
2021/06/04 02:20:38;;;;;;;17.33;7.77;;;;;;;10.38;52.59;99807.81;125503;1104;103202;-68
2021/06/04 02:23:24;;;;;;;22.90;7.90;;;;;;;10.34;52.29;99806.28;125549;1104;103013;-69
2021/06/04 02:26:11;;;;;;;16.10;6.83;;;;;;;10.18;52.25;99809.88;125554;1104;102987;-68
2021/06/04 02:29:06;;;;;;;21.87;8.53;;;;;;;9.88;52.15;99807.20;125527;1104;103116;-68
2021/06/04 02:31:53;;;;;;;20.00;8.27;;;;;;;9.66;52.53;99798.67;125535;1096;103055;-69
2021/06/04 02:34:36;;;;;;;19.63;8.20;;;;;;;9.62;52.45;99809.54;125524;1099;103007;-67
2021/06/04 02:37:23;;;;;;;17.45;7.88;;;;;;;9.64;53.03;99807.66;125534;1096;102987;-66
2021/06/04 02:40:00;;;;;;;18.10;8.40;;;;;;;9.65;52.66;99806.72;125511;1104;102984;-68
2021/06/04 02:42:35;;;;;;;18.10;7.60;;;;;;;9.67;52.79;99810.14;125516;1096;103059;-68
2021/06/04 02:45:26;;;;;;;17.53;7.90;;;;;;;9.71;53.36;99806.37;125537;1104;103059;-68
2021/06/04 02:48:01;;;;;;;19.37;7.87;;;;;;;9.78;53.41;99809.55;125466;1096;103464;-66
2021/06/04 02:50:38;;;;;;;18.27;8.53;;;;;;;9.77;53.26;99811.33;125497;1105;103079;-68
2021/06/04 02:53:22;;;;;;;16.80;7.70;;;;;;;9.80;53.12;99818.26;125579;1104;103008;-68
2021/06/04 02:56:16;;;;;;;20.52;8.10;;;;;;;9.77;53.40;99811.33;125610;1096;102993;-70
2021/06/04 02:58:57;;;;;;;20.50;9.23;;;;;;;9.72;53.19;99815.20;125673;1104;103005;-67
2021/06/04 03:01:30;;;;;;;18.27;8.40;;;;;;;9.65;53.32;99815.55;125606;1104;103051;-67
2021/06/04 03:04:01;;;;;;;19.50;8.20;;;;;;;9.56;53.49;99817.89;125499;1096;103066;-68
2021/06/04 03:06:35;;;;;;;18.27;8.90;;;;;;;9.43;53.53;99815.91;125502;1104;103079;-68
2021/06/04 03:09:07;;;;;;;20.03;7.58;;;;;;;9.33;53.66;99810.27;125512;1096;103435;-68
2021/06/04 03:11:36;;;;;;;19.97;9.30;;;;;;;9.32;53.83;99818.30;125522;1104;102478;-68
2021/06/04 03:14:07;;;;;;;21.70;8.97;;;;;;;9.37;54.14;99817.09;125505;1104;102989;-68
2021/06/04 03:16:36;;;;;;;20.37;8.73;;;;;;;9.44;54.47;99817.63;125586;1104;103448;-68
2021/06/04 03:19:08;;;;;;;17.67;7.80;;;;;;;9.52;54.35;99811.88;125596;1096;103080;-70
2021/06/04 03:21:51;;;;;;;19.17;8.67;;;;;;;9.60;54.50;99817.61;125648;1104;102982;-69
2021/06/04 03:24:26;;;;;;;18.50;8.53;;;;;;;9.70;54.60;99814.44;125653;1104;103086;-69
2021/06/04 03:26:56;;;;;;;17.50;7.90;;;;;;;9.77;54.59;99811.33;125536;1104;103011;-69
2021/06/04 03:29:25;;;;;;;18.13;8.00;;;;;;;9.86;54.54;99822.38;125567;1096;103083;-69
2021/06/04 03:32:03;;;;;;;16.23;7.43;;;;;;;9.89;54.67;99809.76;125545;1104;103080;-68
2021/06/04 03:34:32;;;;;;;16.10;6.73;;;;;;;9.89;54.39;99820.39;125578;1104;103010;-69
2021/06/04 03:37:02;;;;;;;18.97;8.20;;;;;;;9.83;54.48;99813.64;125508;1104;103190;-70
2021/06/04 03:39:38;;;;;;;18.30;7.17;;;;;;;9.79;54.53;99812.10;125555;1097;103078;-69
2021/06/04 03:42:10;;;;;;;18.00;8.30;;;;;;;9.74;54.90;99816.82;125551;1104;103010;-69
2021/06/04 03:44:42;;;;;;;18.63;8.43;;;;;;;9.70;55.13;99817.94;125530;1096;102981;-70
2021/06/04 03:47:12;;;;;;;22.73;8.67;;;;;;;9.67;55.95;99815.45;125540;1104;104619;-69
2021/06/04 03:49:40;;;;;;;18.40;8.10;;;;;;;9.64;55.46;99818.28;125593;1104;103140;-68
2021/06/04 03:52:12;;;;;;;19.90;9.77;;;;;;;9.63;55.62;99822.75;125521;1104;103049;-69
2021/06/04 03:54:45;;;;;;;20.40;8.67;;;;;;;9.66;55.46;99814.61;125573;1096;103019;-68
2021/06/04 03:57:18;;;;;;;16.57;7.67;;;;;;;9.74;55.93;99815.98;125484;1100;102991;-68
2021/06/04 03:59:47;;;;;;;19.83;9.10;;;;;;;9.82;55.71;99816.38;125526;1104;103099;-68
2021/06/04 04:02:19;;;;;;;16.83;7.63;;;;;;;9.92;55.86;99814.90;125546;1099;103151;-68
2021/06/04 04:04:55;;;;;;;17.97;7.57;;;;;;;10.04;55.89;99817.80;125458;1104;103120;-70
2021/06/04 04:07:28;;;;;;;16.93;7.87;;;;;;;10.12;56.19;99807.58;125523;1104;103119;-70
2021/06/04 04:09:58;;;;;;;18.33;8.67;;;;;;;10.23;56.37;99817.56;125526;1096;103134;-71
2021/06/04 04:12:29;;;;;;;16.67;8.20;;;;;;;10.35;56.38;99815.97;125539;1104;102984;-68
2021/06/04 04:14:57;;;;;;;16.47;8.13;;;;;;;10.42;56.29;99817.35;125493;1096;103115;-70
2021/06/04 04:17:29;;;;;;;19.43;8.03;;;;;;;10.51;56.50;99813.27;125475;1104;103003;-72
2021/06/04 04:19:58;;;;;;;16.03;7.80;;;;;;;10.60;56.44;99812.72;125547;1104;103464;-68
2021/06/04 04:22:27;;;;;;;17.00;7.93;;;;;;;10.68;56.65;99818.44;125499;1104;103013;-69
2021/06/04 04:24:56;;;;;;;17.73;7.13;;;;;;;10.78;56.70;99823.20;125553;1104;102990;-68
2021/06/04 04:27:24;;;;;;;17.33;6.93;;;;;;;10.90;56.57;99824.23;125521;1104;103177;-68
2021/06/04 04:29:53;;;;;;;16.10;7.57;;;;;;;11.02;56.63;99823.45;125522;1104;103040;-68
2021/06/04 04:32:22;;;;;;;19.63;7.70;;;;;;;11.14;56.84;99817.37;125651;1104;103010;-68
2021/06/04 04:34:50;;;;;;;17.20;7.70;;;;;;;11.25;56.83;99818.50;125584;1105;102984;-67
2021/06/04 04:37:19;;;;;;;17.87;7.67;;;;;;;11.35;57.01;99819.63;125648;1104;103127;-70
2021/06/04 04:39:48;;;;;;;17.10;7.50;;;;;;;11.41;57.08;99823.70;125514;1104;103188;-69
2021/06/04 04:42:21;;;;;;;17.13;7.50;;;;;;;11.46;57.14;99819.77;125468;1104;102979;-69
2021/06/04 04:44:51;;;;;;;16.05;7.33;;;;;;;11.54;57.13;99824.63;125518;1104;103087;-69
2021/06/04 04:47:23;;;;;;;18.50;7.43;;;;;;;11.66;57.24;99817.64;125562;1104;103009;-69
2021/06/04 04:49:52;;;;;;;17.93;7.87;;;;;;;11.75;57.46;99821.50;125559;1104;103009;-67
2021/06/04 04:52:21;;;;;;;17.33;7.77;;;;;;;11.83;57.33;99819.20;125489;1104;102988;-68
2021/06/04 04:54:55;;;;;;;17.37;7.60;;;;;;;11.96;57.42;99819.23;125490;1104;102982;-68
2021/06/04 04:57:27;;;;;;;17.38;7.25;;;;;;;12.06;57.31;99824.83;125612;1104;103107;-69
2021/06/04 04:59:56;;;;;;;15.90;7.20;;;;;;;12.20;57.57;99816.77;125561;1104;103008;-69
2021/06/04 05:02:25;;;;;;;18.93;7.23;;;;;;;12.30;57.50;99821.48;125523;1104;102977;-69
2021/06/04 05:04:54;;;;;;;17.37;7.20;;;;;;;12.39;57.44;99811.98;125538;1104;103114;-68
2021/06/04 05:07:22;;;;;;;14.40;6.40;;;;;;;12.47;57.41;99813.16;125504;1104;103142;-68
2021/06/04 05:09:52;;;;;;;17.17;7.17;;;;;;;12.57;57.74;99810.73;125584;1104;103144;-69
2021/06/04 05:12:20;;;;;;;18.63;7.10;;;;;;;12.68;57.60;99817.98;125475;1104;103120;-68
2021/06/04 05:14:49;;;;;;;15.90;6.90;;;;;;;12.78;57.69;99815.52;125543;1104;103073;-69
2021/06/04 05:17:18;;;;;;;17.57;7.40;;;;;;;12.89;57.67;99820.97;125528;1099;103135;-70
2021/06/04 05:19:47;;;;;;;18.25;7.15;;;;;;;12.99;57.58;99823.00;125512;1104;103518;-68
2021/06/04 05:22:16;;;;;;;15.00;6.60;;;;;;;13.08;57.93;99830.33;125540;1104;103550;-70
2021/06/04 05:24:45;;;;;;;15.80;6.63;;;;;;;13.19;57.74;99821.58;125571;1104;103079;-69
2021/06/04 05:27:13;;;;;;;15.13;7.03;;;;;;;13.30;57.88;99820.80;125511;1104;103151;-72
2021/06/04 05:29:42;;;;;;;15.50;7.00;;;;;;;13.39;57.90;99826.32;125545;1104;103077;-69
2021/06/04 05:32:11;;;;;;;17.57;7.43;;;;;;;13.49;57.82;99823.02;125473;1097;103016;-70
2021/06/04 05:34:40;;;;;;;15.13;6.53;;;;;;;13.62;57.99;99828.31;125558;1097;103009;-70
2021/06/04 05:37:08;;;;;;;16.93;6.83;;;;;;;13.74;58.02;99823.88;125534;1104;103088;-68
2021/06/04 05:39:37;;;;;;;15.90;6.90;;;;;;;13.90;58.11;99821.78;125504;1104;103080;-68
2021/06/04 05:42:07;;;;;;;16.37;6.70;;;;;;;14.09;58.05;99820.38;125560;1104;103155;-67
2021/06/04 05:44:38;;;;;;;13.90;7.03;;;;;;;14.27;58.08;99823.48;125507;1104;103033;-69
2021/06/04 05:47:13;;;;;;;14.87;6.63;;;;;;;14.40;58.17;99826.09;125681;1104;103012;-67
2021/06/04 05:49:43;;;;;;;15.33;6.67;;;;;;;14.59;58.23;99828.20;125627;1097;103177;-69
2021/06/04 05:52:14;;;;;;;17.70;7.10;;;;;;;14.75;58.09;99825.22;125650;1104;103132;-70
2021/06/04 05:54:46;;;;;;;14.77;6.40;;;;;;;14.92;58.23;99831.05;125569;1104;103254;-69
2021/06/04 05:57:16;;;;;;;16.80;7.20;;;;;;;15.04;58.12;99835.45;125471;1104;103416;-69
2021/06/04 05:59:45;;;;;;;19.60;7.17;;;;;;;15.23;58.36;99832.16;125563;1097;103596;-69
2021/06/04 06:02:13;;;;;;;17.57;7.67;;;;;;;15.44;58.22;99831.41;125526;1104;103448;-69
2021/06/04 06:04:42;;;;;;;13.93;6.43;;;;;;;15.59;58.25;99831.98;125495;1104;103087;-69
2021/06/04 06:07:11;;;;;;;15.70;6.80;;;;;;;15.75;58.21;99826.22;125519;1104;102977;-69
2021/06/04 06:09:39;;;;;;;18.23;7.23;;;;;;;15.91;58.20;99837.39;125512;1104;103100;-68
2021/06/04 06:12:09;;;;;;;13.63;6.50;;;;;;;16.07;58.22;99839.68;125484;1104;103102;-69
2021/06/04 06:14:38;;;;;;;13.70;6.05;;;;;;;16.27;58.25;99830.93;125557;1104;103127;-68
2021/06/04 06:17:06;;;;;;;11.00;5.60;;;;;;;16.46;58.14;99836.42;125520;1100;103059;-70
2021/06/04 06:19:35;;;;;;;12.30;5.80;;;;;;;16.68;58.12;99842.66;125518;1104;102978;-70
2021/06/04 06:22:04;;;;;;;15.23;5.90;;;;;;;16.87;58.14;99841.05;125495;1097;103199;-69
2021/06/04 06:24:32;;;;;;;17.67;6.23;;;;;;;17.08;57.82;99839.21;125496;1104;103013;-70
2021/06/04 06:27:01;;;;;;;14.53;5.93;;;;;;;17.29;57.80;99843.66;125536;1096;103109;-70
2021/06/04 06:29:30;;;;;;;17.00;6.50;;;;;;;17.48;57.85;99840.18;125572;1104;103009;-69
2021/06/04 06:31:59;;;;;;;14.10;5.67;;;;;;;17.65;57.51;99835.97;125523;1104;102975;-69
2021/06/04 06:34:29;;;;;;;14.20;5.90;;;;;;;17.81;57.89;99834.59;125510;1104;104198;-69
2021/06/04 06:36:59;;;;;;;12.23;5.20;;;;;;;18.02;57.67;99842.58;125522;1097;103084;-69
2021/06/04 06:39:31;;;;;;;10.13;4.77;;;;;;;18.22;57.81;99840.73;125504;1104;103147;-69
2021/06/04 06:42:03;;;;;;;11.25;5.10;;;;;;;18.43;57.57;99845.96;125533;1105;103037;-69
2021/06/04 06:44:32;;;;;;;11.15;5.10;;;;;;;18.66;57.41;99842.09;125545;1104;103171;-70
2021/06/04 06:47:03;;;;;;;11.75;5.05;;;;;;;18.88;57.34;99839.05;125482;1104;103062;-69
2021/06/04 06:49:32;;;;;;;12.50;5.67;;;;;;;19.16;57.66;99843.66;125519;1097;102997;-68
2021/06/04 06:52:01;;;;;;;10.30;4.67;;;;;;;19.57;57.55;99837.91;125550;1104;103083;-69
2021/06/04 06:54:32;;;;;;;11.63;4.80;;;;;;;20.59;56.76;99835.84;125528;1104;103457;-69
2021/06/04 06:57:00;;;;;;;9.90;4.70;;;;;;;22.58;55.68;99820.26;125512;1096;103080;-70
2021/06/04 06:59:31;;;;;;;10.77;5.20;;;;;;;24.58;54.84;99829.07;125588;1104;103086;-69
2021/06/04 07:02:04;;;;;;;11.43;4.40;;;;;;;26.48;54.73;99828.48;125574;1104;103070;-69
2021/06/04 07:04:34;;;;;;;9.30;4.10;;;;;;;28.21;54.64;99826.81;125631;1094;103001;-69
2021/06/04 07:07:04;;;;;;;11.20;4.30;;;;;;;29.73;54.29;99826.94;125650;1104;102978;-69
2021/06/04 07:09:32;;;;;;;9.70;3.60;;;;;;;31.31;54.12;99835.14;125598;1104;102974;-70
2021/06/04 07:12:01;;;;;;;9.90;3.75;;;;;;;32.50;53.71;99837.48;125608;1104;103233;-69
2021/06/04 07:14:34;;;;;;;11.17;4.00;;;;;;;33.72;53.68;99836.85;125614;1104;103142;-68
2021/06/04 07:17:04;;;;;;;12.97;3.83;;;;;;;34.81;53.25;99836.80;125656;1104;103072;-69
2021/06/04 07:19:35;;;;;;;9.10;3.87;;;;;;;35.93;53.11;99837.63;125544;1097;102969;-69
2021/06/04 07:22:05;;;;;;;12.10;3.95;;;;;;;36.89;52.62;99842.58;125624;1104;103010;-69
2021/06/04 07:24:34;;;;;;;6.90;3.60;;;;;;;37.86;51.65;99834.98;125528;1104;102982;-68
2021/06/04 07:27:04;;;;;;;10.73;3.60;;;;;;;38.59;50.81;99835.84;125514;1104;103177;-69
2021/06/04 07:29:32;;;;;;;8.13;3.47;;;;;;;39.31;50.41;99835.68;125548;1104;103139;-70
2021/06/04 07:32:01;;;;;;;11.67;4.00;;;;;;;40.04;49.89;99834.17;125543;1104;103009;-68
2021/06/04 07:34:29;;;;;;;7.70;3.83;;;;;;;40.86;49.10;99834.58;125507;1097;102984;-69
2021/06/04 07:37:03;;;;;;;10.27;3.70;;;;;;;41.46;48.10;99830.48;125526;1104;103051;-70
2021/06/04 07:39:34;;;;;;;7.90;3.20;;;;;;;42.00;47.47;99833.11;125569;1104;103128;-68
2021/06/04 07:42:07;;;;;;;7.90;3.57;;;;;;;42.54;46.40;99835.58;125564;1104;102985;-69
2021/06/04 07:44:36;;;;;;;8.00;3.20;;;;;;;42.93;45.35;99831.49;125572;1096;103131;-69
2021/06/04 07:47:05;;;;;;;7.13;3.27;;;;;;;43.25;44.79;99829.73;125519;1104;103142;-69
2021/06/04 07:49:33;;;;;;;6.10;2.80;;;;;;;43.67;43.80;99826.85;125535;1104;103615;-69
2021/06/04 07:52:03;;;;;;;4.53;2.80;;;;;;;43.69;42.66;99824.56;125460;1096;103098;-69
2021/06/04 07:54:32;;;;;;;9.23;3.57;;;;;;;43.88;41.93;99832.79;125506;1104;103007;-68
2021/06/04 07:57:02;;;;;;;8.43;3.50;;;;;;;44.11;41.35;99827.23;125544;1096;103086;-69
2021/06/04 07:59:31;;;;;;;13.53;3.30;;;;;;;44.21;40.11;99828.94;125537;1104;103083;-70
2021/06/04 08:01:59;;;;;;;7.67;3.30;;;;;;;44.22;39.36;99832.59;125563;1097;103009;-70
2021/06/04 08:04:39;;;;;;;6.60;3.63;;;;;;;44.31;38.71;99836.25;125656;1104;103591;-69
2021/06/04 08:07:08;;;;;;;10.30;3.20;;;;;;;44.25;37.65;99832.76;125645;1104;103070;-69
2021/06/04 08:09:41;;;;;;;10.43;3.40;;;;;;;43.82;36.99;99833.24;125615;1104;102959;-69
2021/06/04 08:12:15;;;;;;;9.73;3.20;;;;;;;43.74;36.35;99829.23;125563;1104;102987;-70
2021/06/04 08:14:44;;;;;;;10.57;3.80;;;;;;;43.84;35.76;99831.77;125615;1104;103080;-70
2021/06/04 08:17:13;;;;;;;13.53;3.70;;;;;;;43.94;35.08;99827.91;125671;1104;103108;-70
2021/06/04 08:19:42;;;;;;;7.75;3.20;;;;;;;43.85;34.80;99833.42;125689;1104;103114;-70
2021/06/04 08:22:12;;;;;;;14.30;5.07;;;;;;;43.52;33.91;99835.59;125556;1097;103457;-70
2021/06/04 08:24:40;;;;;;;8.53;3.00;;;;;;;42.83;33.10;99834.48;125528;1104;103117;-70
2021/06/04 08:27:09;;;;;;;9.37;3.40;;;;;;;42.72;32.67;99832.99;125534;1104;103090;-70
2021/06/04 08:29:37;;;;;;;12.13;3.87;;;;;;;42.11;31.40;99833.76;125550;1104;102973;-68
2021/06/04 08:32:07;;;;;;;12.33;3.57;;;;;;;40.38;31.27;99824.14;125493;1100;102981;-69
2021/06/04 08:34:36;;;;;;;9.43;3.40;;;;;;;39.42;31.54;99833.70;125508;1096;102980;-69
2021/06/04 08:37:05;;;;;;;9.23;3.57;;;;;;;38.96;31.04;99832.75;125528;1104;103078;-69
2021/06/04 08:39:37;;;;;;;8.15;3.70;;;;;;;38.01;30.35;99834.19;125538;1104;103123;-69
2021/06/04 08:42:18;;;;;;;8.33;3.53;;;;;;;37.06;30.14;99832.18;125523;1104;103166;-70
2021/06/04 08:45:41;;;;;;;8.03;3.20;;;;;;;36.12;29.77;99832.58;125494;1104;103009;-70
2021/06/04 08:48:26;;;;;;;8.57;3.63;;;;;;;34.95;29.47;99828.15;125515;1104;103171;-69
2021/06/04 08:51:23;;;;;;;11.00;3.37;;;;;;;34.13;29.40;99831.28;125540;1104;103406;-71
2021/06/04 08:54:16;;;;;;;9.53;3.37;;;;;;;33.32;28.98;99824.75;125536;1096;103118;-69
2021/06/04 08:57:05;;;;;;;10.00;3.40;;;;;;;32.64;28.49;99825.17;125550;1104;103019;-70
2021/06/04 08:59:35;;;;;;;12.20;3.85;;;;;;;31.93;27.99;99828.61;125587;1096;103069;-69
2021/06/04 09:02:08;;;;;;;9.30;4.10;;;;;;;31.02;27.70;99818.30;125638;1104;103009;-70
2021/06/04 09:04:50;;;;;;;6.83;3.30;;;;;;;30.35;27.69;99818.11;125590;1096;103032;-70
2021/06/04 09:07:24;;;;;;;9.13;3.73;;;;;;;29.37;27.62;99820.98;125539;1104;103015;-70
2021/06/04 09:09:58;;;;;;;8.10;3.50;;;;;;;28.59;26.97;99820.70;125579;1096;103212;-71
2021/06/04 09:12:50;;;;;;;8.93;3.50;;;;;;;27.90;27.40;99812.67;125530;1104;103078;-71
2021/06/04 09:15:26;;;;;;;8.70;3.53;;;;;;;27.18;26.73;99806.70;125593;1104;102984;-71
2021/06/04 09:18:02;;;;;;;8.17;3.60;;;;;;;26.89;26.87;99806.79;125545;1104;103059;-70
2021/06/04 09:20:38;;;;;;;8.67;3.67;;;;;;;27.42;27.04;99801.78;125582;1104;103081;-70
2021/06/04 09:23:11;;;;;;;9.07;3.67;;;;;;;27.42;27.54;99809.97;125533;1104;103070;-70
2021/06/04 09:25:42;;;;;;;10.07;3.77;;;;;;;27.46;27.40;99800.33;125461;1100;103139;-71
2021/06/04 09:28:13;;;;;;;7.80;3.63;;;;;;;27.46;27.54;99809.34;125636;1096;103091;-69
2021/06/04 09:30:45;;;;;;;10.80;3.80;;;;;;;27.36;27.52;99797.95;125603;1100;103100;-69
2021/06/04 09:33:16;;;;;;;;;;;;;;;27.17;27.62;99803.14;125591;1104;103062;-70
2021/06/04 09:36:05;;;;;;;11.87;3.67;;;;;;;27.12;27.63;99794.72;125583;1104;103151;-69
2021/06/04 09:39:14;;;;;;;12.43;4.30;;;;;;;26.97;27.51;99804.91;125563;1104;103077;-68
2021/06/04 09:41:46;;;;;;;6.30;3.40;;;;;;;26.84;27.66;99795.63;125576;1104;103009;-70
2021/06/04 09:44:18;;;;;;;13.20;4.70;;;;;;;26.82;27.68;99792.25;125512;1104;103061;-68
2021/06/04 09:47:08;;;;;;;12.63;5.47;;;;;;;26.74;27.75;99790.48;125465;1104;103062;-70
2021/06/04 09:49:40;;;;;;;12.10;4.53;;;;;;;26.62;27.89;99794.82;125567;1104;102984;-71
2021/06/04 09:52:39;;;;;;;;;;;;;;;26.60;27.92;99800.46;125582;1104;103145;-68
2021/06/04 09:55:26;;;;;;;8.17;3.50;;;;;;;26.53;27.96;99785.92;125578;1104;102987;-71
2021/06/04 09:58:03;;;;;;;9.23;3.80;;;;;;;26.46;28.04;99795.97;125542;1096;103083;-71
2021/06/04 10:01:00;;;;;;;6.23;3.53;;;;;;;26.40;27.69;99783.95;125522;1104;103081;-70
2021/06/04 10:03:31;;;;;;;7.90;3.83;;;;;;;26.32;27.99;99780.53;125549;1097;103013;-69
2021/06/04 10:06:06;;;;;;;8.97;4.00;;;;;;;26.20;28.06;99791.14;125518;1104;103075;-70
2021/06/04 10:08:51;;;;;;;10.53;3.73;;;;;;;26.16;27.81;99793.40;125581;1104;103560;-69
2021/06/04 10:11:31;;;;;;;13.30;4.20;;;;;;;26.04;28.10;99787.61;125510;1096;104500;-71
2021/06/04 10:14:14;;;;;;;8.87;3.90;;;;;;;25.99;28.27;99792.80;125540;1104;103336;-71
2021/06/04 10:19:20;;;;;;;8.57;3.50;;;;;;;25.86;28.18;99791.65;125540;1097;103037;-69
2021/06/04 10:22:14;;;;;;;5.43;3.17;;;;;;;25.73;28.47;99788.78;125534;1095;103006;-69
2021/06/04 10:24:50;;;;;;;9.67;3.10;;;;;;;25.67;28.43;99792.27;125502;1096;103058;-69
2021/06/04 10:27:39;;;;;;;8.10;3.10;;;;;;;25.62;28.21;99790.14;125542;1104;103056;-69
2021/06/04 10:30:21;;;;;;;8.57;3.27;;;;;;;25.53;28.20;99778.49;125518;1100;103083;-69
2021/06/04 10:33:08;;;;;;;11.37;3.50;;;;;;;25.48;28.29;99783.67;125497;1104;103008;-70
2021/06/04 10:35:41;;;;;;;7.97;3.40;;;;;;;25.43;28.64;99780.67;125550;1096;103062;-70
2021/06/04 10:38:22;;;;;;;11.83;3.47;;;;;;;25.42;28.86;99789.88;125528;1104;103055;-70
2021/06/04 10:40:58;;;;;;;6.27;3.33;;;;;;;25.35;28.86;99773.44;125490;1104;102984;-70
2021/06/04 10:43:58;;;;;;;7.63;2.90;;;;;;;25.32;28.56;99771.09;125575;1104;102987;-70
2021/06/04 10:46:36;;;;;;;5.37;2.90;;;;;;;25.35;28.74;99773.44;125656;1104;103085;-69
2021/06/04 10:49:34;;;;;;;8.83;3.50;;;;;;;25.39;28.46;99763.86;125616;1097;103077;-70
2021/06/04 10:52:17;;;;;;;6.60;2.97;;;;;;;25.39;28.94;99769.30;125585;1104;103032;-70
2021/06/04 10:54:52;;;;;;;;;;;;;;;25.37;28.73;99771.38;125533;1104;103118;-69
2021/06/04 10:57:26;;;;;;;4.43;2.80;;;;;;;25.33;29.00;99775.51;125505;1104;103078;-67
2021/06/04 11:00:12;;;;;;;5.70;2.90;;;;;;;25.36;28.64;99771.58;125497;1096;103056;-68
2021/06/04 11:02:59;;;;;;;5.10;2.97;;;;;;;25.35;29.08;99768.00;125538;1104;103012;-68
2021/06/04 11:05:31;;;;;;;6.33;2.70;;;;;;;25.33;28.75;99770.06;125588;1097;103054;-68
2021/06/04 11:08:28;;;;;;;7.10;2.60;;;;;;;25.34;29.23;99771.75;125575;1104;103056;-68
2021/06/04 11:11:25;;;;;;;3.70;2.60;;;;;;;25.40;28.96;99760.09;125582;1104;103009;-68
2021/06/04 11:13:58;;;;;;;8.57;2.70;;;;;;;25.48;28.69;99761.88;125449;1104;103009;-68
2021/06/04 11:16:40;;;;;;;6.57;2.77;;;;;;;25.50;28.81;99765.26;125475;1104;103066;-70
2021/06/04 11:19:41;;;;;;;6.77;2.80;;;;;;;25.55;28.95;99764.70;125553;1104;103126;-69
2021/06/04 11:22:18;;;;;;;17.90;4.37;;;;;;;25.62;28.75;99762.89;125576;1104;102994;-69
2021/06/04 11:24:59;;;;;;;11.17;3.03;;;;;;;25.68;29.21;99764.81;125683;1104;103016;-70
2021/06/04 11:27:40;;;;;;;6.50;3.17;;;;;;;25.76;28.95;99763.88;125624;1104;103011;-71
2021/06/04 11:30:20;;;;;;;8.20;3.00;;;;;;;25.89;29.11;99762.29;125585;1096;102984;-71
2021/06/04 11:33:01;;;;;;;9.60;3.23;;;;;;;25.99;28.87;99760.09;125517;1104;103578;-71
2021/06/04 11:35:35;;;;;;;6.73;2.93;;;;;;;26.01;29.10;99761.59;125533;1104;103084;-69
2021/06/04 11:38:10;;;;;;;7.97;3.07;;;;;;;26.00;28.83;99759.91;125564;1104;103081;-69
2021/06/04 11:40:44;;;;;;;6.00;2.60;;;;;;;25.88;28.68;99755.19;125466;1104;103493;-70
2021/06/04 11:43:13;;;;;;;6.17;2.80;;;;;;;25.80;28.83;99758.86;125594;1104;103059;-69
2021/06/04 11:45:46;;;;;;;4.87;2.60;;;;;;;25.80;28.70;99751.55;126710;1104;103065;-70
2021/06/04 11:48:20;;;;;;;5.70;2.90;;;;;;;25.81;28.93;99755.96;125529;1096;103240;-69
2021/06/04 11:50:49;;;;;;;6.60;2.93;;;;;;;25.84;28.91;99751.98;125542;1097;103215;-68